East Farms, Washington
Current Conditions -  °F | °C
As of 6:53 AM on Thursday 23 Oct 2014 (Local Time) from KSFF Reporting Station
Overcast Overcast  
Wind Chill: 12°   Ceiling: 8000
Heat Index: 12°   Visibility: 10mi
Dew Point:   Wind: 9mph
Humidity: 75%   Direction: 190°S
Pressure: 29.78"   Gusts: NA
Location:  47.7153°N, 117.066°W
Report Text: KSFF 231353Z 19008KT 10SM SCT065 BKN080 OVC095 12/08 A2978 RMK AO2 RAB13E22 SLP084 P0000 T01220078
Loading
Personal Weather Stations






























Interactive Weather Map
Tropical Storm Tracking
New forecast layout! Learn more

10-Day Weather Forecast

Advertisements
Track Severe Weather on mobile